Time;durP1;ratioP1;P1;durP2;ratioP2;P2;SDS_P1;SDS_P2;PMS_P1;PMS_P2;Temp;Humidity;BMP_temperature;BMP_pressure;BME280_temperature;BME280_humidity;BME280_pressure;Samples;Min_cycle;Max_cycle;Signal;HPM_P1;HPM_P2
2022/08/04 00:02:24;;;;;;;19.60;10.85;;;;;;;29.27;67.24;100730.13;4996735;28;65713;-30
2022/08/04 00:05:03;;;;;;;13.90;11.50;;;;;;;29.76;68.08;100782.75;4952237;28;69660;-28
2022/08/04 00:08:04;;;;;;;14.40;12.70;;;;;;;29.82;68.76;100787.31;4953750;28;66571;-30
2022/08/04 00:10:43;;;;;;;15.45;13.18;;;;;;;29.91;69.40;100800.56;4952909;28;44065;-28
2022/08/04 00:13:16;;;;;;;16.40;13.60;;;;;;;29.97;69.98;100802.41;4953842;28;66457;-29
2022/08/04 00:15:52;;;;;;;31.35;25.63;;;;;;;29.47;71.11;100721.09;4951718;28;69034;-30
2022/08/04 00:18:33;;;;;;;40.35;27.27;;;;;;;29.07;71.79;100664.53;4952457;28;66105;-29
2022/08/04 00:21:06;;;;;;;28.45;23.10;;;;;;;29.41;72.61;100728.19;4944498;28;69999;-32
2022/08/04 00:23:44;;;;;;;29.83;23.58;;;;;;;29.31;72.98;100723.25;4951770;28;65802;-31
2022/08/04 00:26:37;;;;;;;27.30;21.48;;;;;;;29.97;68.22;100805.13;4953099;28;70171;-32
2022/08/04 00:29:08;;;;;;;28.70;20.33;;;;;;;30.07;67.83;100800.09;4944913;28;66484;-30
2022/08/04 00:31:42;;;;;;;;;;;;;;;29.74;72.20;100805.66;4952784;28;70831;-33
2022/08/04 00:34:27;;;;;;;38.38;19.52;;;;;;;30.22;67.15;100810.63;4950023;28;66651;-32
2022/08/04 00:36:59;;;;;;;24.33;18.58;;;;;;;30.33;67.31;100811.81;4947762;28;69824;-32
2022/08/04 00:39:32;;;;;;;19.02;17.15;;;;;;;30.40;67.12;100805.31;5009348;28;65875;-31
2022/08/04 00:42:14;;;;;;;20.70;17.73;;;;;;;30.07;68.75;100751.38;4945168;28;70908;-31
2022/08/04 00:44:54;;;;;;;20.45;16.70;;;;;;;30.56;66.88;100824.75;4939729;28;65643;-34
2022/08/04 00:47:50;;;;;;;21.30;17.13;;;;;;;30.60;67.89;100832.22;4941295;28;71206;-32
2022/08/04 00:50:21;;;;;;;16.88;15.18;;;;;;;30.65;67.11;100828.88;4949494;28;66522;-30
2022/08/04 00:53:13;;;;;;;19.15;16.42;;;;;;;30.69;66.69;100832.78;4948017;28;70106;-31
2022/08/04 00:56:05;;;;;;;18.05;15.15;;;;;;;30.75;66.76;100834.59;4952456;28;64486;-31
2022/08/04 00:58:37;;;;;;;18.15;15.55;;;;;;;30.80;66.31;100831.28;4949635;28;69711;-30
2022/08/04 01:01:32;;;;;;;16.60;14.85;;;;;;;30.65;66.75;100832.41;4944088;28;66325;-30
2022/08/04 01:04:19;;;;;;;16.55;14.85;;;;;;;30.40;65.91;100772.00;4946843;28;70753;-29
2022/08/04 01:07:38;;;;;;;14.63;13.25;;;;;;;30.75;66.67;100853.56;4950335;28;65741;-30
2022/08/04 01:10:19;;;;;;;14.35;13.13;;;;;;;30.94;65.48;100859.91;4932793;28;69306;-31
2022/08/04 01:12:58;;;;;;;18.38;14.18;;;;;;;30.63;65.72;100804.72;4953481;28;66470;-31
2022/08/04 01:15:36;;;;;;;15.02;13.57;;;;;;;30.99;65.09;100868.22;4953910;28;69944;-30
2022/08/04 01:18:36;;;;;;;18.67;13.70;;;;;;;30.93;65.56;100836.59;4948425;28;66614;-30
2022/08/04 01:21:40;;;;;;;14.57;13.18;;;;;;;30.97;65.91;100854.03;4947347;28;70433;-30
2022/08/04 01:24:30;;;;;;;14.73;13.60;;;;;;;31.06;65.18;100863.53;4950499;28;66074;-29
2022/08/04 01:27:11;;;;;;;16.30;13.75;;;;;;;30.63;64.91;100795.78;4954862;28;70089;-31
2022/08/04 01:29:53;;;;;;;14.48;12.70;;;;;;;30.90;64.49;100834.34;4951132;28;65874;-29
2022/08/04 01:32:40;;;;;;;13.88;12.68;;;;;;;30.97;65.00;100853.22;4950894;28;70254;-31
2022/08/04 01:35:25;;;;;;;14.45;13.07;;;;;;;31.07;64.45;100848.97;5015368;28;66383;-30
2022/08/04 01:38:36;;;;;;;15.10;13.60;;;;;;;31.11;64.62;100871.84;4950223;28;70670;-30
2022/08/04 01:41:14;;;;;;;14.50;12.65;;;;;;;31.19;64.08;100883.47;4952604;28;65750;-29
2022/08/04 01:43:46;;;;;;;14.35;13.23;;;;;;;31.08;63.44;100847.06;4952671;28;70303;-30
2022/08/04 01:46:18;;;;;;;14.05;12.93;;;;;;;31.28;63.73;100879.41;4954366;28;66175;-31
2022/08/04 01:48:53;;;;;;;14.13;12.80;;;;;;;31.16;63.77;100855.75;4945566;28;69761;-30
2022/08/04 01:51:25;;;;;;;13.77;12.57;;;;;;;31.28;63.65;100872.09;4945234;28;65583;-30
2022/08/04 01:53:56;;;;;;;13.02;11.80;;;;;;;31.24;63.51;100862.78;4953873;28;69302;-30
2022/08/04 01:56:30;;;;;;;13.63;12.52;;;;;;;31.36;63.13;100879.16;4952150;28;65990;-32
2022/08/04 01:59:03;;;;;;;13.50;12.32;;;;;;;31.08;63.23;100828.94;4953822;28;70327;-31
2022/08/04 02:01:36;;;;;;;14.48;13.10;;;;;;;30.99;63.15;100803.19;4952447;28;65748;-30
2022/08/04 02:04:14;;;;;;;13.23;12.15;;;;;;;31.00;62.99;100804.84;4949341;28;70091;-30
2022/08/04 02:07:02;;;;;;;12.65;11.32;;;;;;;31.45;63.04;100879.69;4953400;28;66799;-31
2022/08/04 02:09:46;;;;;;;;;;;;;;;31.11;63.65;100869.13;4950719;28;69333;-31
2022/08/04 02:13:06;;;;;;;12.20;11.10;;;;;;;31.38;63.09;100871.63;4952979;28;66059;-30
2022/08/04 02:16:02;;;;;;;12.70;11.70;;;;;;;31.51;62.43;100860.66;4952681;28;70007;-30
2022/08/04 02:18:46;;;;;;;;;;;;;;;31.19;63.79;100856.38;4951669;28;66222;-31
2022/08/04 02:21:19;;;;;;;12.23;11.23;;;;;;;31.21;62.48;100805.50;4948912;28;69590;-31
2022/08/04 02:24:05;;;;;;;12.75;11.68;;;;;;;31.46;62.20;100830.69;4946938;28;66095;-30
2022/08/04 02:26:40;;;;;;;12.23;11.13;;;;;;;31.21;61.78;100789.22;4951575;28;70000;-32
2022/08/04 02:29:23;;;;;;;12.23;11.13;;;;;;;31.29;61.94;100786.22;4951429;28;66606;-31
2022/08/04 02:32:14;;;;;;;11.73;10.82;;;;;;;31.72;61.49;100851.22;4952740;28;69310;-30
2022/08/04 02:35:05;;;;;;;12.32;11.10;;;;;;;31.34;61.31;100783.63;4952560;28;66611;-31
2022/08/04 02:37:36;;;;;;;12.82;11.52;;;;;;;31.68;61.25;100827.47;4952948;28;70117;-31
2022/08/04 02:40:11;;;;;;;11.20;10.38;;;;;;;31.34;61.39;100761.97;4952694;28;65269;-29
2022/08/04 02:42:45;;;;;;;11.57;10.68;;;;;;;31.84;61.38;100835.00;4953291;28;70372;-30
2022/08/04 02:45:20;;;;;;;12.07;11.13;;;;;;;31.43;60.76;100757.13;4951184;28;66140;-31
2022/08/04 02:47:55;;;;;;;11.07;10.35;;;;;;;31.82;60.62;100812.72;4949030;28;70319;-30
2022/08/04 02:50:48;;;;;;;12.30;11.20;;;;;;;31.92;60.61;100818.44;4951995;28;65790;-32
2022/08/04 02:53:26;;;;;;;11.68;10.38;;;;;;;31.69;60.73;100780.34;4951838;28;69478;-31
2022/08/04 02:56:00;;;;;;;11.38;10.57;;;;;;;31.97;60.50;100818.59;4953877;28;66204;-31
2022/08/04 02:58:35;;;;;;;11.13;10.40;;;;;;;31.64;60.25;100762.03;4946471;28;70038;-32
2022/08/04 03:01:06;;;;;;;10.15;9.35;;;;;;;32.00;60.99;100826.28;4949450;28;66270;-31
2022/08/04 03:03:50;;;;;;;11.05;10.13;;;;;;;31.57;60.02;100743.16;4953876;28;69826;-30
2022/08/04 03:06:46;;;;;;;11.00;10.07;;;;;;;31.42;60.24;100742.72;5012926;28;66406;-31
2022/08/04 03:10:16;;;;;;;10.07;9.50;;;;;;;31.54;60.25;100751.75;4948050;28;70417;-30
2022/08/04 03:13:06;;;;;;;11.05;10.10;;;;;;;32.10;60.26;100824.91;4987755;28;65712;-31
2022/08/04 03:15:47;;;;;;;10.55;9.75;;;;;;;32.11;59.92;100823.84;4990807;28;70067;-31
2022/08/04 03:18:49;;;;;;;10.63;9.70;;;;;;;32.09;59.83;100818.63;4958521;28;66210;-31
2022/08/04 03:21:45;;;;;;;11.05;9.98;;;;;;;32.09;59.86;100818.63;4948285;28;68125;-30
2022/08/04 03:24:28;;;;;;;9.57;9.05;;;;;;;32.20;59.82;100830.59;4943347;28;66647;-31
2022/08/04 03:27:11;;;;;;;10.27;9.50;;;;;;;32.19;59.43;100824.34;4946666;28;70400;-30
2022/08/04 03:30:04;;;;;;;10.45;9.65;;;;;;;32.14;59.69;100823.38;4942901;28;66626;-30
2022/08/04 03:33:19;;;;;;;10.13;9.50;;;;;;;32.08;59.86;100822.41;4951931;28;69731;-29
2022/08/04 03:36:00;;;;;;;10.10;9.50;;;;;;;32.25;59.64;100822.59;4968169;28;65334;-33
2022/08/04 03:38:37;;;;;;;9.43;8.93;;;;;;;32.28;59.78;100819.41;4953865;28;69931;-31
2022/08/04 03:41:48;;;;;;;9.85;9.10;;;;;;;32.14;59.98;100815.25;4946648;28;66371;-31
2022/08/04 03:44:47;;;;;;;10.50;9.52;;;;;;;32.31;59.63;100812.69;4946425;28;69872;-31
2022/08/04 03:47:24;;;;;;;10.68;9.93;;;;;;;32.36;59.62;100807.41;5017303;28;65191;-31
2022/08/04 03:50:17;;;;;;;10.45;9.73;;;;;;;32.28;59.55;100814.00;4951326;28;70117;-31
2022/08/04 03:53:15;;;;;;;9.90;9.30;;;;;;;32.35;59.52;100800.34;4954109;28;66243;-32
2022/08/04 03:56:17;;;;;;;11.32;10.25;;;;;;;32.35;59.21;100809.31;5006085;28;69991;-32
2022/08/04 03:58:53;;;;;;;16.35;10.48;;;;;;;32.28;59.32;100784.13;5033191;28;66367;-33
2022/08/04 04:02:11;;;;;;;10.80;10.02;;;;;;;32.28;59.65;100805.84;5015373;28;69131;-31
2022/08/04 04:04:51;;;;;;;10.73;9.98;;;;;;;32.45;59.38;100795.97;4953493;28;65406;-32
2022/08/04 04:07:37;;;;;;;;;;;;;;;32.13;60.08;100791.88;5031593;28;70024;-32
2022/08/04 04:10:25;;;;;;;11.73;10.70;;;;;;;32.39;59.19;100785.22;4948731;28;66105;-31
2022/08/04 04:13:29;;;;;;;11.30;10.45;;;;;;;32.51;59.16;100787.97;4951322;28;70358;-33
2022/08/04 04:16:16;;;;;;;11.35;10.48;;;;;;;32.49;59.25;100783.63;4955367;28;65587;-31
2022/08/04 04:19:19;;;;;;;10.02;9.40;;;;;;;32.37;59.72;100785.44;5012671;28;69277;-31
2022/08/04 04:21:53;;;;;;;13.07;10.30;;;;;;;32.55;59.45;100781.03;4946802;28;66480;-32
2022/08/04 04:24:37;;;;;;;10.63;9.73;;;;;;;32.11;59.50;100712.59;4952351;28;70044;-31
2022/08/04 04:27:34;;;;;;;10.40;9.52;;;;;;;32.49;59.65;100775.47;4947729;28;65546;-30
2022/08/04 04:30:21;;;;;;;10.85;10.18;;;;;;;32.55;59.41;100767.47;4951910;28;69923;-34
2022/08/04 04:32:58;;;;;;;11.05;9.98;;;;;;;32.60;59.46;100770.31;5004277;28;65913;-31
2022/08/04 04:36:07;;;;;;;11.38;10.48;;;;;;;32.46;59.57;100765.09;4948979;28;70100;-32
2022/08/04 04:39:09;;;;;;;10.88;9.80;;;;;;;32.13;59.60;100703.16;4958683;28;65335;-31
2022/08/04 04:41:58;;;;;;;10.70;10.07;;;;;;;32.62;59.44;100763.56;4955758;28;70418;-32
2022/08/04 04:44:56;;;;;;;10.65;10.00;;;;;;;32.59;59.58;100774.06;4945749;28;65478;-30
2022/08/04 04:48:14;;;;;;;9.82;9.13;;;;;;;32.19;59.65;100709.53;5015028;28;69641;-30
2022/08/04 04:50:54;;;;;;;10.65;9.80;;;;;;;32.63;59.43;100769.84;4959553;28;65693;-31
2022/08/04 04:53:53;;;;;;;10.02;9.27;;;;;;;32.21;59.80;100702.81;5010973;28;70008;-33
2022/08/04 04:56:39;;;;;;;11.23;9.85;;;;;;;32.58;59.65;100747.97;4982860;28;65211;-32
2022/08/04 04:59:15;;;;;;;10.03;9.30;;;;;;;31.87;59.68;100620.25;4947558;28;69658;-31
2022/08/04 05:01:58;;;;;;;9.95;9.15;;;;;;;32.66;59.88;100753.06;4947079;28;65490;-32
2022/08/04 05:04:47;;;;;;;9.77;8.98;;;;;;;32.72;59.80;100757.56;5018769;28;70503;-31
2022/08/04 05:07:24;;;;;;;9.38;8.77;;;;;;;32.72;59.68;100746.69;4952785;28;66690;-31
2022/08/04 05:10:17;;;;;;;10.55;9.65;;;;;;;32.72;59.84;100746.69;4954801;28;71359;-31
2022/08/04 05:13:19;;;;;;;10.27;9.50;;;;;;;32.11;60.07;100655.59;4954697;28;66753;-30
2022/08/04 05:16:24;;;;;;;9.73;9.13;;;;;;;32.68;60.13;100740.06;4969283;28;69984;-31
2022/08/04 05:19:21;;;;;;;9.82;9.30;;;;;;;32.64;59.85;100730.75;4968574;28;66007;-31
2022/08/04 05:22:09;;;;;;;10.48;9.57;;;;;;;32.18;60.07;100656.31;4945775;28;69482;-31
2022/08/04 05:24:47;;;;;;;9.55;9.05;;;;;;;32.25;59.88;100648.88;4950378;28;66237;-31
2022/08/04 05:27:30;;;;;;;10.07;9.38;;;;;;;32.24;59.80;100649.97;4954556;28;70594;-30
2022/08/04 05:30:10;;;;;;;9.48;8.88;;;;;;;32.73;59.73;100726.59;4958219;28;65693;-31
2022/08/04 05:33:02;;;;;;;9.57;8.75;;;;;;;32.67;59.81;100722.94;4954484;28;70801;-31
2022/08/04 05:35:40;;;;;;;9.75;9.05;;;;;;;32.36;59.78;100656.22;4951914;28;66570;-30
2022/08/04 05:38:36;;;;;;;9.23;8.63;;;;;;;31.92;59.59;100579.72;4954104;28;70207;-31
2022/08/04 05:41:09;;;;;;;9.30;8.55;;;;;;;32.78;59.84;100710.41;4948553;28;65957;-30
2022/08/04 05:43:44;;;;;;;9.73;8.95;;;;;;;32.68;59.84;100686.59;4952792;28;70288;-30
2022/08/04 05:46:19;;;;;;;9.00;8.50;;;;;;;32.54;59.78;100651.75;4952944;28;66160;-30
2022/08/04 05:48:52;;;;;;;9.25;8.65;;;;;;;32.76;59.83;100693.53;4951421;28;70211;-31
2022/08/04 05:51:24;;;;;;;9.52;8.93;;;;;;;32.80;59.80;100692.00;4952650;28;66121;-30
2022/08/04 05:53:54;;;;;;;;;;;;;;;32.45;60.71;100692.78;4952778;28;70421;-31
2022/08/04 05:56:32;;;;;;;8.98;8.43;;;;;;;32.80;59.87;100683.84;4952559;28;66784;-31
2022/08/04 05:59:05;;;;;;;9.52;8.77;;;;;;;32.84;59.86;100679.59;4968146;28;69638;-31
2022/08/04 06:01:39;;;;;;;9.35;8.75;;;;;;;32.77;59.76;100651.75;4968400;28;65802;-31
2022/08/04 06:04:36;;;;;;;9.77;8.93;;;;;;;32.86;59.45;100663.88;4959219;28;70356;-32
2022/08/04 06:07:11;;;;;;;8.93;8.43;;;;;;;32.35;59.57;100584.00;4955587;28;66763;-31
2022/08/04 06:09:43;;;;;;;10.35;9.63;;;;;;;32.90;59.82;100666.94;5035392;28;70081;-32
2022/08/04 06:12:45;;;;;;;9.93;9.07;;;;;;;32.71;59.81;100630.97;4950136;28;65763;-30
2022/08/04 06:15:19;;;;;;;9.40;8.73;;;;;;;32.90;60.05;100651.47;4952872;28;69974;-31
2022/08/04 06:18:01;;;;;;;9.65;8.88;;;;;;;32.92;59.80;100641.19;4991959;28;66168;-30
2022/08/04 06:20:55;;;;;;;10.00;9.23;;;;;;;32.54;59.75;100583.88;4951599;28;70432;-30
2022/08/04 06:23:30;;;;;;;9.68;8.95;;;;;;;32.49;59.69;100558.28;4955685;28;65991;-32
2022/08/04 06:26:04;;;;;;;9.57;8.77;;;;;;;32.96;59.72;100621.69;4971282;28;70471;-31
2022/08/04 06:28:37;;;;;;;10.25;9.65;;;;;;;32.37;59.98;100527.56;4956894;28;66080;-30
2022/08/04 06:31:10;;;;;;;8.77;8.27;;;;;;;33.01;59.86;100613.66;4979684;28;69426;-31
2022/08/04 06:34:03;;;;;;;9.50;8.80;;;;;;;33.03;59.79;100611.53;4953434;28;66367;-30
2022/08/04 06:36:36;;;;;;;9.73;9.02;;;;;;;33.04;59.78;100597.72;4955402;28;69735;-32
2022/08/04 06:39:09;;;;;;;12.75;8.70;;;;;;;32.94;59.81;100576.56;4955413;28;65414;-30
2022/08/04 06:41:43;;;;;;;9.45;8.80;;;;;;;33.06;59.72;100583.88;4982155;28;69620;-31
2022/08/04 06:44:36;;;;;;;8.77;7.95;;;;;;;32.99;59.75;100561.41;4954088;28;65995;-30
2022/08/04 06:47:09;;;;;;;8.95;8.40;;;;;;;33.10;59.86;100568.75;4957136;28;70386;-30
2022/08/04 06:49:43;;;;;;;9.07;8.50;;;;;;;33.11;59.89;100554.09;4961945;28;66693;-31
2022/08/04 06:52:35;;;;;;;9.10;8.32;;;;;;;33.13;59.54;100554.69;4947001;28;69704;-32
2022/08/04 06:55:08;;;;;;;8.82;8.23;;;;;;;32.76;59.52;100483.56;4952617;28;66705;-30
2022/08/04 06:57:41;;;;;;;8.25;7.75;;;;;;;33.12;59.79;100544.84;4955102;28;70237;-30
2022/08/04 07:00:16;;;;;;;8.80;8.18;;;;;;;33.06;59.58;100510.50;4969732;28;66525;-30
2022/08/04 07:02:53;;;;;;;9.15;8.30;;;;;;;33.22;59.37;100533.34;4955403;28;70132;-30
2022/08/04 07:05:25;;;;;;;7.97;7.28;;;;;;;33.07;59.57;100509.44;4950511;28;66268;-31
2022/08/04 07:07:58;;;;;;;7.55;7.05;;;;;;;33.27;59.27;100528.84;4966865;28;69699;-30
2022/08/04 07:10:30;;;;;;;8.07;7.10;;;;;;;33.29;59.49;100534.84;4956987;28;65390;-30
2022/08/04 07:13:03;;;;;;;7.38;6.80;;;;;;;33.22;59.50;100500.75;4952439;28;69420;-31
2022/08/04 07:15:37;;;;;;;7.78;7.28;;;;;;;33.36;59.43;100518.38;4949062;28;65570;-31
2022/08/04 07:18:10;;;;;;;7.18;6.78;;;;;;;33.37;59.37;100504.53;4952510;28;70209;-31
2022/08/04 07:20:43;;;;;;;10.35;7.35;;;;;;;33.35;59.25;100495.00;4978072;28;66658;-31
2022/08/04 07:23:20;;;;;;;7.30;6.80;;;;;;;33.42;59.11;100494.81;4969996;28;70380;-30
2022/08/04 07:25:54;;;;;;;6.40;6.05;;;;;;;33.32;59.30;100474.56;4953368;28;66195;-31
2022/08/04 07:28:42;;;;;;;7.25;6.78;;;;;;;33.34;59.38;100472.41;4974708;28;69987;-31
2022/08/04 07:31:18;;;;;;;6.85;6.18;;;;;;;33.34;59.41;100494.13;4947999;28;66365;-30
2022/08/04 07:34:04;;;;;;;7.63;6.95;;;;;;;33.30;59.30;100449.50;4954334;28;70309;-31
2022/08/04 07:36:52;;;;;;;6.72;6.07;;;;;;;33.46;59.16;100474.22;5020981;28;65988;-31
2022/08/04 07:39:30;;;;;;;7.32;6.80;;;;;;;33.24;59.05;100436.91;4954684;28;70398;-30
2022/08/04 07:42:20;;;;;;;6.78;6.32;;;;;;;33.48;59.09;100477.50;4960099;28;65859;-30
2022/08/04 07:44:52;;;;;;;6.82;6.43;;;;;;;33.54;59.08;100482.81;4961626;28;70378;-30
2022/08/04 07:47:23;;;;;;;8.02;7.32;;;;;;;33.52;59.16;100473.25;4952055;28;66506;-30
2022/08/04 07:49:54;;;;;;;;;;;;;;;33.22;59.97;100473.56;4959458;28;70023;-30
2022/08/04 07:52:27;;;;;;;6.82;6.32;;;;;;;33.51;58.99;100457.97;4957710;28;65486;-29
2022/08/04 07:54:59;;;;;;;9.00;6.47;;;;;;;33.52;59.13;100463.22;4960072;28;69386;-30
2022/08/04 07:57:30;;;;;;;7.15;6.70;;;;;;;33.56;58.97;100463.53;4955168;28;66582;-30
2022/08/04 08:00:13;;;;;;;15.30;6.78;;;;;;;33.57;59.02;100465.16;4976358;28;70235;-31
2022/08/04 08:02:51;;;;;;;7.30;6.75;;;;;;;33.57;58.96;100462.44;4951297;28;66192;-31
2022/08/04 08:05:23;;;;;;;6.93;6.47;;;;;;;33.58;59.11;100461.41;4954247;28;70195;-30
2022/08/04 08:07:57;;;;;;;6.82;6.25;;;;;;;33.58;58.84;100455.94;4955319;28;65686;-31
2022/08/04 08:10:28;;;;;;;12.90;7.15;;;;;;;33.46;58.93;100431.53;4952431;28;69757;-30
2022/08/04 08:13:00;;;;;;;7.13;6.53;;;;;;;33.59;59.04;100454.88;4944288;28;65941;-30
2022/08/04 08:15:32;;;;;;;6.55;6.18;;;;;;;33.62;58.94;100456.28;4951594;28;70504;-31
2022/08/04 08:18:04;;;;;;;7.03;6.63;;;;;;;33.63;59.05;100456.03;4950973;28;65400;-30
2022/08/04 08:20:36;;;;;;;6.63;6.22;;;;;;;33.62;58.88;100456.28;4950251;28;70438;-30
2022/08/04 08:23:08;;;;;;;6.53;6.07;;;;;;;33.63;58.96;100456.03;5014847;28;66813;-31
2022/08/04 08:25:40;;;;;;;6.80;6.05;;;;;;;33.53;58.78;100447.72;4954528;28;69953;-31
2022/08/04 08:28:11;;;;;;;6.43;6.13;;;;;;;33.62;58.86;100446.22;4949270;28;65815;-30
2022/08/04 08:30:44;;;;;;;6.82;6.32;;;;;;;33.64;58.75;100444.06;4948397;28;69853;-30
2022/08/04 08:33:23;;;;;;;6.38;5.97;;;;;;;33.15;58.77;100367.72;5029879;28;65752;-31
2022/08/04 08:36:12;;;;;;;6.38;5.78;;;;;;;33.62;58.81;100439.94;4955917;28;70403;-30
2022/08/04 08:39:04;;;;;;;6.55;5.95;;;;;;;33.38;58.95;100400.16;4952525;28;66571;-30
2022/08/04 08:41:55;;;;;;;6.40;5.85;;;;;;;33.58;59.00;100426.03;5021458;28;69156;-30
2022/08/04 08:44:32;;;;;;;6.45;5.95;;;;;;;33.65;58.87;100423.94;4950020;28;66093;-31
2022/08/04 08:47:37;;;;;;;6.03;5.72;;;;;;;33.62;58.57;100418.19;4952078;28;69404;-30
2022/08/04 08:51:05;;;;;;;7.20;5.32;;;;;;;33.60;59.07;100415.75;4955500;28;65701;-30
2022/08/04 08:53:57;;;;;;;6.18;5.68;;;;;;;33.69;58.66;100413.41;4950991;28;70121;-31
2022/08/04 08:56:28;;;;;;;;;;;;;;;33.36;59.58;100415.88;4951725;28;66079;-30
2022/08/04 08:59:25;;;;;;;5.53;5.13;;;;;;;33.65;58.93;100409.53;4949349;28;70344;-31
2022/08/04 09:02:03;;;;;;;6.07;5.60;;;;;;;33.68;59.05;100409.84;4950590;28;65423;-31
2022/08/04 09:04:43;;;;;;;5.90;5.30;;;;;;;33.68;58.77;100412.56;4955427;28;70167;-31
2022/08/04 09:07:51;;;;;;;8.35;5.82;;;;;;;33.63;58.80;100417.09;5005666;28;65726;-29
2022/08/04 09:10:51;;;;;;;6.82;5.38;;;;;;;33.72;58.81;100413.72;4954208;28;70241;-31
2022/08/04 09:13:36;;;;;;;9.02;5.43;;;;;;;33.69;59.14;100422.38;4955373;28;65765;-31
2022/08/04 09:16:35;;;;;;;5.90;5.00;;;;;;;33.69;58.89;100414.22;4946827;28;69962;-31
2022/08/04 09:19:25;;;;;;;8.18;5.15;;;;;;;33.73;58.86;100412.63;4950902;28;66069;-30
2022/08/04 09:22:19;;;;;;;5.43;5.03;;;;;;;33.74;59.14;100414.31;4970737;28;69161;-30
2022/08/04 09:25:08;;;;;;;5.03;4.63;;;;;;;33.26;58.51;100334.19;4947516;28;66368;-30
2022/08/04 09:27:42;;;;;;;5.75;5.13;;;;;;;33.74;58.67;100411.59;4944697;28;70088;-30
2022/08/04 09:30:18;;;;;;;5.38;4.88;;;;;;;33.74;58.68;100417.03;4943243;28;66803;-30
2022/08/04 09:33:11;;;;;;;7.20;5.20;;;;;;;33.75;58.66;100418.66;4950308;28;70113;-31
2022/08/04 09:35:45;;;;;;;5.65;5.15;;;;;;;33.73;58.88;100425.44;4945659;28;66263;-31
2022/08/04 09:38:50;;;;;;;5.60;5.10;;;;;;;33.64;58.98;100418.78;4958476;28;70558;-30
2022/08/04 09:41:43;;;;;;;8.30;4.82;;;;;;;33.73;58.82;100412.63;4952271;28;66578;-31
2022/08/04 09:44:59;;;;;;;5.20;4.80;;;;;;;33.64;59.31;100433.19;4956857;28;69561;-31
2022/08/04 09:47:52;;;;;;;8.45;5.18;;;;;;;33.34;59.13;100362.84;4957180;28;65719;-30
2022/08/04 09:50:40;;;;;;;5.30;4.90;;;;;;;33.72;58.96;100426.50;5017852;28;70311;-30
2022/08/04 09:53:32;;;;;;;5.68;5.10;;;;;;;33.19;59.10;100363.44;4958351;28;66141;-32
2022/08/04 09:56:20;;;;;;;5.40;4.95;;;;;;;33.66;59.09;100441.13;5020494;28;69945;-30
2022/08/04 09:59:10;;;;;;;9.00;4.88;;;;;;;33.18;59.01;100363.66;4955498;28;66591;-30
2022/08/04 10:01:44;;;;;;;5.70;4.75;;;;;;;33.33;58.82;100389.19;4951288;28;69842;-30
2022/08/04 10:04:31;;;;;;;8.63;5.75;;;;;;;33.56;58.93;100437.16;5011980;28;66619;-30
2022/08/04 10:07:16;;;;;;;6.78;5.00;;;;;;;33.67;59.38;100445.47;5024211;28;70173;-32
2022/08/04 10:10:06;;;;;;;4.88;4.57;;;;;;;33.65;59.12;100442.97;4950713;28;65800;-30
2022/08/04 10:12:55;;;;;;;5.20;4.70;;;;;;;33.54;59.27;100443.91;5023065;28;70487;-31
2022/08/04 10:16:19;;;;;;;6.97;5.05;;;;;;;33.44;59.61;100446.47;4955446;28;66317;-30
2022/08/04 10:19:03;;;;;;;5.28;4.78;;;;;;;33.58;59.24;100448.63;4991907;28;69603;-31
2022/08/04 10:22:07;;;;;;;5.38;4.97;;;;;;;33.33;59.48;100432.69;4985853;28;66573;-30
2022/08/04 10:25:14;;;;;;;10.20;5.43;;;;;;;33.23;62.46;100457.00;4958253;28;69931;-33
2022/08/04 10:28:11;;;;;;;10.30;5.88;;;;;;;33.08;63.99;100479.31;4956260;28;67148;-36
2022/08/04 10:30:51;;;;;;;9.27;6.05;;;;;;;32.45;65.11;100396.88;4956362;28;69971;-33
2022/08/04 10:33:36;;;;;;;10.40;6.63;;;;;;;32.89;65.88;100486.81;4957469;28;66694;-35
2022/08/04 10:36:11;;;;;;;6.70;6.18;;;;;;;32.81;66.09;100495.34;5020525;28;70051;-33
2022/08/04 10:39:08;;;;;;;6.47;5.70;;;;;;;32.81;66.32;100498.06;4970515;28;66473;-34
2022/08/04 10:42:24;;;;;;;10.85;5.88;;;;;;;32.66;67.80;100503.22;5007527;28;69954;-34
2022/08/04 10:45:09;;;;;;;9.02;6.20;;;;;;;32.66;68.85;100504.03;4952673;28;66583;-33
2022/08/04 10:47:58;;;;;;;7.20;6.05;;;;;;;32.21;68.56;100430.63;5019677;28;69981;-33
2022/08/04 10:50:31;;;;;;;7.85;5.55;;;;;;;32.77;68.11;100515.94;4955231;28;65718;-30
2022/08/04 10:53:09;;;;;;;7.50;5.75;;;;;;;32.94;67.55;100524.94;4958985;28;71124;-30
2022/08/04 10:56:08;;;;;;;19.20;5.97;;;;;;;33.05;67.03;100530.59;4952042;28;65640;-31
2022/08/04 10:58:49;;;;;;;8.32;5.90;;;;;;;33.16;66.37;100546.03;4957838;28;71606;-31
2022/08/04 11:01:28;;;;;;;11.90;6.30;;;;;;;32.74;66.18;100464.81;4952074;28;66099;-30
2022/08/04 11:04:51;;;;;;;6.78;6.03;;;;;;;32.70;65.81;100459.00;4954831;28;70632;-30
2022/08/04 11:07:23;;;;;;;15.45;6.88;;;;;;;33.29;65.21;100531.28;4954209;28;65489;-32
2022/08/04 11:09:56;;;;;;;12.10;6.55;;;;;;;33.36;64.86;100540.94;4956511;28;69854;-30
2022/08/04 11:12:29;;;;;;;12.13;7.35;;;;;;;32.54;64.71;100418.25;4959107;28;65663;-29
2022/08/04 11:15:15;;;;;;;11.25;7.72;;;;;;;33.35;65.14;100561.06;5004912;28;70160;-30
2022/08/04 11:17:55;;;;;;;11.13;7.53;;;;;;;32.96;64.71;100491.25;4956129;28;66393;-30
2022/08/04 11:20:34;;;;;;;9.73;6.72;;;;;;;33.43;64.31;100556.28;4955420;28;70617;-31
2022/08/04 11:23:14;;;;;;;9.40;7.30;;;;;;;33.05;64.60;100498.00;5020296;28;66164;-30
2022/08/04 11:26:05;;;;;;;9.02;7.28;;;;;;;33.37;64.15;100563.50;4953934;28;69284;-30
2022/08/04 11:28:46;;;;;;;11.70;7.38;;;;;;;33.46;64.12;100570.22;4956861;28;66356;-30
2022/08/04 11:31:38;;;;;;;9.00;6.95;;;;;;;33.44;64.10;100569.63;4955728;28;69520;-30
2022/08/04 11:34:25;;;;;;;10.27;7.15;;;;;;;32.97;64.04;100509.22;4954422;28;66640;-31
2022/08/04 11:37:13;;;;;;;10.27;7.55;;;;;;;33.48;64.24;100587.09;5019263;28;69846;-32
2022/08/04 11:40:23;;;;;;;11.32;8.57;;;;;;;33.37;64.89;100596.13;5016115;28;65421;-31
2022/08/04 11:43:06;;;;;;;12.02;8.48;;;;;;;33.47;64.82;100596.34;4953840;28;70373;-30
2022/08/04 11:46:00;;;;;;;14.85;8.90;;;;;;;33.37;64.73;100591.53;4950394;28;65284;-31
2022/08/04 11:48:54;;;;;;;12.07;9.15;;;;;;;32.90;64.74;100499.34;4950034;28;70017;-30
2022/08/04 11:51:27;;;;;;;20.02;9.52;;;;;;;33.03;64.45;100521.88;4957371;28;65735;-30
2022/08/04 11:54:00;;;;;;;12.40;9.68;;;;;;;33.50;64.68;100595.03;4956076;28;69229;-31
2022/08/04 11:56:32;;;;;;;14.68;9.30;;;;;;;33.48;64.35;100597.97;5033008;28;66635;-33
2022/08/04 11:59:08;;;;;;;20.35;9.95;;;;;;;33.38;64.55;100582.31;4954465;28;70005;-29
2022/08/04 12:02:28;;;;;;;10.73;9.18;;;;;;;33.28;64.93;100582.13;4951526;28;65435;-30
2022/08/04 12:05:03;;;;;;;17.02;9.40;;;;;;;33.06;64.34;100524.09;4950710;28;69243;-30
2022/08/04 12:07:47;;;;;;;15.68;9.77;;;;;;;32.96;65.06;100510.28;4953486;28;66247;-31
2022/08/04 12:10:49;;;;;;;12.57;10.10;;;;;;;33.41;64.76;100593.78;4952777;28;69921;-32
2022/08/04 12:13:20;;;;;;;12.80;10.40;;;;;;;33.43;64.91;100594.34;4955938;28;65559;-32
2022/08/04 12:16:16;;;;;;;13.65;9.80;;;;;;;32.97;64.62;100526.34;4950268;28;70100;-30
2022/08/04 12:18:59;;;;;;;14.38;9.88;;;;;;;33.43;64.75;100613.38;4962591;28;66146;-31
2022/08/04 12:21:53;;;;;;;11.40;9.35;;;;;;;33.26;65.06;100597.84;4956304;28;69803;-31
2022/08/04 12:24:33;;;;;;;14.45;9.65;;;;;;;33.31;64.79;100618.88;4959004;28;65788;-29
2022/08/04 12:27:21;;;;;;;12.10;10.20;;;;;;;33.34;64.98;100651.81;4952987;28;70120;-30
2022/08/04 12:30:00;;;;;;;11.27;9.85;;;;;;;33.42;64.61;100647.91;4955311;28;66020;-31
2022/08/04 12:33:04;;;;;;;13.93;10.18;;;;;;;33.30;64.76;100650.69;5016673;28;70182;-31
2022/08/04 12:35:44;;;;;;;11.02;9.88;;;;;;;33.32;64.20;100670.28;4978718;28;65766;-31
2022/08/04 12:38:46;;;;;;;13.93;9.57;;;;;;;32.93;64.37;100618.41;5033317;28;70283;-31
2022/08/04 12:41:25;;;;;;;13.98;10.00;;;;;;;33.15;64.41;100669.38;4951555;28;65309;-31